createdAt,value
2019-04-29T00:00:52.209Z,7.90
2019-04-29T00:03:22.697Z,7.90
2019-04-29T00:05:52.477Z,7.90
2019-04-29T00:08:22.426Z,7.90
2019-04-29T00:10:52.221Z,7.90
2019-04-29T00:13:22.202Z,7.90
2019-04-29T00:16:09.756Z,7.90
2019-04-29T00:19:01.680Z,7.80
2019-04-29T00:21:31.358Z,7.80
2019-04-29T00:24:04.145Z,7.80
2019-04-29T00:26:32.762Z,7.80
2019-04-29T00:29:02.473Z,7.80
2019-04-29T00:31:32.074Z,7.70
2019-04-29T00:34:01.768Z,7.80
2019-04-29T00:36:36.481Z,7.80
2019-04-29T00:39:35.073Z,7.80
2019-04-29T00:42:26.905Z,7.80
2019-04-29T00:44:56.565Z,7.70
2019-04-29T00:47:26.172Z,7.70
2019-04-29T00:49:55.930Z,7.70
2019-04-29T00:52:25.605Z,7.70
2019-04-29T00:55:01.212Z,7.70
2019-04-29T00:57:30.944Z,7.70
2019-04-29T01:00:00.778Z,7.70
2019-04-29T01:02:31.157Z,7.70
2019-04-29T01:05:09.029Z,7.80
2019-04-29T01:07:39.293Z,7.70
2019-04-29T01:10:10.042Z,7.70
2019-04-29T01:12:39.916Z,7.80
2019-04-29T01:15:09.968Z,7.80
2019-04-29T01:17:39.598Z,7.80
2019-04-29T01:20:09.558Z,7.80
2019-04-29T01:22:39.129Z,7.90
2019-04-29T01:25:09.322Z,7.90
2019-04-29T01:27:44.642Z,7.90
2019-04-29T01:31:12.351Z,8.00
2019-04-29T01:33:42.426Z,8.00
2019-04-29T01:36:40.483Z,8.00
2019-04-29T01:39:13.308Z,8.10
2019-04-29T01:41:52.267Z,8.10
2019-04-29T01:44:22.399Z,8.10
2019-04-29T01:47:48.140Z,8.10
2019-04-29T01:50:17.811Z,8.20
2019-04-29T01:52:47.583Z,8.20
2019-04-29T01:55:17.439Z,8.10
2019-04-29T01:57:47.185Z,8.10
2019-04-29T02:00:17.857Z,8.20
2019-04-29T02:02:47.496Z,8.20
2019-04-29T02:05:17.501Z,8.20
2019-04-29T02:07:47.308Z,8.20
2019-04-29T02:10:31.451Z,8.20
2019-04-29T02:13:01.290Z,8.10
2019-04-29T02:15:31.323Z,8.10
2019-04-29T02:18:00.995Z,8.10
2019-04-29T02:20:30.944Z,8.20
2019-04-29T02:23:30.421Z,8.10
2019-04-29T02:26:00.162Z,8.10
2019-04-29T02:28:30.001Z,8.10
2019-04-29T02:31:19.683Z,8.10
2019-04-29T02:33:49.643Z,8.10
2019-04-29T02:36:20.497Z,8.10
2019-04-29T02:39:05.486Z,8.10
2019-04-29T02:41:43.078Z,8.20
2019-04-29T02:44:14.133Z,8.20
2019-04-29T02:46:44.102Z,8.10
2019-04-29T02:49:15.123Z,8.10
2019-04-29T02:51:51.841Z,8.10
2019-04-29T02:54:23.490Z,8.10
2019-04-29T02:57:08.348Z,8.20
2019-04-29T02:59:43.543Z,8.20
2019-04-29T03:02:26.907Z,8.20
2019-04-29T03:05:09.281Z,8.20
2019-04-29T03:07:39.301Z,8.20
2019-04-29T03:10:09.855Z,8.20
2019-04-29T03:12:40.374Z,8.20
2019-04-29T03:15:11.936Z,8.20
2019-04-29T03:17:42.292Z,8.20
2019-04-29T03:20:21.469Z,8.20
2019-04-29T03:22:53.505Z,8.30
2019-04-29T03:25:23.427Z,8.30
2019-04-29T03:27:55.044Z,8.30
2019-04-29T03:30:24.826Z,8.30
2019-04-29T03:32:54.994Z,8.20
2019-04-29T03:35:25.396Z,8.20
2019-04-29T03:37:55.429Z,8.20
2019-04-29T03:40:25.531Z,8.30
2019-04-29T03:42:55.866Z,8.20
2019-04-29T03:45:26.115Z,8.40
2019-04-29T03:47:56.064Z,8.30
2019-04-29T03:50:25.909Z,8.40
2019-04-29T03:52:55.621Z,8.30
2019-04-29T03:55:39.108Z,8.40
2019-04-29T03:57:58.641Z,8.30
2019-04-29T04:00:28.940Z,8.40
2019-04-29T04:03:23.647Z,8.40
2019-04-29T04:06:19.765Z,8.40
2019-04-29T04:09:05.825Z,8.40
2019-04-29T04:11:29.231Z,8.40
2019-04-29T04:13:59.076Z,8.30
2019-04-29T04:16:49.299Z,8.40
2019-04-29T04:19:21.687Z,8.30
2019-04-29T04:21:51.612Z,8.30
2019-04-29T04:24:21.233Z,8.20
2019-04-29T04:26:51.217Z,8.20
2019-04-29T04:29:20.842Z,8.10
2019-04-29T04:31:50.798Z,8.20
2019-04-29T04:34:20.400Z,8.10
2019-04-29T04:36:50.044Z,8.20
2019-04-29T04:39:26.721Z,8.10
2019-04-29T04:41:56.725Z,8.10
2019-04-29T04:44:45.470Z,8.10
2019-04-29T04:47:15.224Z,8.10
2019-04-29T04:49:45.204Z,8.10
2019-04-29T04:52:15.146Z,8.10
2019-04-29T04:54:46.644Z,8.10
2019-04-29T04:57:17.183Z,8.20
2019-04-29T04:59:47.084Z,8.20
2019-04-29T05:02:16.909Z,8.20
2019-04-29T05:04:46.574Z,8.20
2019-04-29T05:07:16.618Z,8.30
2019-04-29T05:09:46.742Z,8.30
2019-04-29T05:12:16.391Z,8.30
2019-04-29T05:14:46.577Z,8.30
2019-04-29T05:17:16.236Z,8.30
2019-04-29T05:19:46.235Z,8.40
2019-04-29T05:22:16.118Z,8.40
2019-04-29T05:24:46.138Z,8.50
2019-04-29T05:27:16.176Z,8.50
2019-04-29T05:29:45.928Z,8.50
2019-04-29T05:32:16.861Z,8.50
2019-04-29T05:34:48.728Z,8.60
2019-04-29T05:37:40.848Z,8.60
2019-04-29T05:40:10.858Z,8.70
2019-04-29T05:42:40.729Z,8.70
2019-04-29T05:45:19.120Z,8.80
2019-04-29T05:47:57.054Z,8.80
2019-04-29T05:50:42.819Z,8.80
2019-04-29T05:53:34.623Z,8.90
2019-04-29T05:56:04.330Z,8.90
2019-04-29T05:58:37.921Z,8.80
2019-04-29T06:01:10.556Z,8.70
2019-04-29T06:03:40.243Z,8.80
2019-04-29T06:06:12.282Z,8.80
2019-04-29T06:08:41.414Z,8.90
2019-04-29T06:11:11.062Z,8.90
2019-04-29T06:13:41.021Z,8.90
2019-04-29T06:16:10.874Z,9.00
2019-04-29T06:18:41.361Z,8.90
2019-04-29T06:21:11.144Z,9.00
2019-04-29T06:23:41.134Z,9.00
2019-04-29T06:26:11.023Z,9.00
2019-04-29T06:28:40.956Z,9.00
2019-04-29T06:31:10.850Z,9.10
2019-04-29T06:33:41.462Z,9.20
2019-04-29T06:36:11.340Z,9.10
2019-04-29T06:38:41.454Z,9.10
2019-04-29T06:41:11.377Z,9.20
2019-04-29T06:43:41.229Z,9.20
2019-04-29T06:46:11.060Z,9.20
2019-04-29T06:48:40.860Z,9.20
2019-04-29T06:51:10.630Z,9.30
2019-04-29T06:53:41.643Z,9.20
2019-04-29T06:56:12.065Z,9.30
2019-04-29T06:58:42.019Z,9.30
2019-04-29T07:01:11.956Z,9.30
2019-04-29T07:03:41.872Z,9.40
2019-04-29T07:06:11.547Z,9.40
2019-04-29T07:08:42.013Z,9.40
2019-04-29T07:11:11.998Z,9.40
2019-04-29T07:13:41.735Z,9.40
2019-04-29T07:16:11.400Z,9.30
2019-04-29T07:18:48.292Z,9.30
2019-04-29T07:21:13.122Z,9.30
2019-04-29T07:23:43.207Z,9.30
2019-04-29T07:26:13.115Z,9.30
2019-04-29T07:28:42.749Z,9.30
2019-04-29T07:31:12.451Z,9.30
2019-04-29T07:33:42.097Z,9.30
2019-04-29T07:36:11.777Z,9.30
2019-04-29T07:38:42.275Z,9.30
2019-04-29T07:41:14.251Z,9.30
2019-04-29T07:43:44.561Z,9.30
2019-04-29T07:46:34.699Z,9.30
2019-04-29T07:49:05.791Z,9.30
2019-04-29T07:51:39.518Z,9.30
2019-04-29T07:54:11.029Z,9.20
2019-04-29T07:56:42.446Z,9.30
2019-04-29T07:59:11.275Z,9.20
2019-04-29T08:01:41.088Z,9.10
2019-04-29T08:04:11.005Z,9.10
2019-04-29T08:06:42.982Z,9.10
2019-04-29T08:09:13.661Z,9.10
2019-04-29T08:11:43.658Z,9.10
2019-04-29T08:14:13.380Z,9.10
2019-04-29T08:16:43.021Z,9.10
2019-04-29T08:19:12.807Z,9.10
2019-04-29T08:21:45.506Z,9.10
2019-04-29T08:24:15.823Z,9.10
2019-04-29T08:26:47.612Z,9.10
2019-04-29T08:29:17.125Z,9.10
2019-04-29T08:31:46.721Z,9.00
2019-04-29T08:34:18.822Z,9.00
2019-04-29T08:36:48.020Z,9.00
2019-04-29T08:39:18.021Z,9.00
2019-04-29T08:41:47.682Z,8.60
2019-04-29T08:44:34.237Z,9.20
2019-04-29T08:47:14.901Z,9.10
2019-04-29T08:49:44.577Z,9.10
2019-04-29T08:52:14.216Z,9.20
2019-04-29T08:54:43.849Z,9.20
2019-04-29T08:57:14.904Z,9.20
2019-04-29T08:59:44.790Z,9.20
2019-04-29T09:02:14.929Z,9.20
2019-04-29T09:04:53.344Z,9.20
2019-04-29T09:07:17.548Z,9.20
2019-04-29T09:09:48.502Z,9.20
2019-04-29T09:12:19.375Z,9.30
2019-04-29T09:14:49.662Z,9.20
2019-04-29T09:17:20.525Z,9.20
2019-04-29T09:19:50.740Z,9.20
2019-04-29T09:22:22.619Z,9.30
2019-04-29T09:25:30.175Z,9.40
2019-04-29T09:28:03.233Z,9.40
2019-04-29T09:30:32.801Z,9.50
2019-04-29T09:33:04.382Z,9.60
2019-04-29T09:35:38.639Z,9.60
2019-04-29T09:38:05.713Z,9.70
2019-04-29T09:40:39.926Z,9.70
2019-04-29T09:43:33.256Z,9.80
2019-04-29T09:46:07.024Z,9.90
2019-04-29T09:48:36.673Z,10.00
2019-04-29T09:51:22.871Z,10.00
2019-04-29T09:53:50.152Z,10.00
2019-04-29T09:56:20.198Z,10.00
2019-04-29T09:58:53.098Z,10.00
2019-04-29T10:01:43.697Z,10.10
2019-04-29T10:04:38.734Z,10.00
2019-04-29T10:07:10.583Z,9.70
2019-04-29T10:09:40.814Z,10.00
2019-04-29T10:12:11.434Z,10.00
2019-04-29T10:14:42.129Z,10.10
2019-04-29T10:17:31.877Z,10.10
2019-04-29T10:20:08.190Z,10.10
2019-04-29T10:22:38.671Z,10.10
2019-04-29T10:25:09.301Z,10.30
2019-04-29T10:27:39.245Z,10.50
2019-04-29T10:30:09.620Z,10.60
2019-04-29T10:32:42.357Z,10.60
2019-04-29T10:35:11.260Z,10.70
2019-04-29T10:37:41.398Z,10.70
2019-04-29T10:40:21.399Z,10.90
2019-04-29T10:43:00.814Z,11.00
2019-04-29T10:45:51.442Z,10.80
2019-04-29T10:48:26.067Z,10.90
2019-04-29T10:50:57.336Z,10.80
2019-04-29T10:53:28.966Z,10.90
2019-04-29T10:56:05.740Z,11.00
2019-04-29T10:58:35.721Z,11.00
2019-04-29T11:01:45.365Z,11.10
2019-04-29T11:04:20.960Z,11.30
2019-04-29T11:06:50.981Z,11.70
2019-04-29T11:09:32.585Z,12.20
2019-04-29T11:12:04.262Z,12.30
2019-04-29T11:14:37.640Z,12.40
2019-04-29T11:17:16.066Z,12.30
2019-04-29T11:19:40.057Z,12.50
2019-04-29T11:22:12.656Z,12.30
2019-04-29T11:25:04.660Z,12.10
2019-04-29T11:27:41.328Z,11.80
2019-04-29T11:30:14.674Z,11.90
2019-04-29T11:32:48.859Z,12.20
2019-04-29T11:35:38.021Z,12.70
2019-04-29T11:38:10.001Z,13.00
2019-04-29T11:40:43.586Z,13.00
2019-04-29T11:43:17.228Z,13.20
2019-04-29T11:45:47.448Z,13.20
2019-04-29T11:48:17.405Z,13.30
2019-04-29T11:51:02.706Z,13.50
2019-04-29T11:53:34.252Z,13.60
2019-04-29T11:56:04.902Z,13.80
2019-04-29T11:59:09.090Z,13.80
2019-04-29T12:01:59.815Z,13.90
2019-04-29T12:04:42.073Z,14.10
2019-04-29T12:07:11.072Z,14.10
2019-04-29T12:10:02.313Z,14.30
2019-04-29T12:12:32.053Z,14.30
2019-04-29T12:15:26.324Z,14.30
2019-04-29T12:18:08.406Z,14.20
2019-04-29T12:21:06.363Z,14.30
2019-04-29T12:23:36.306Z,14.10
2019-04-29T12:26:08.158Z,14.10
2019-04-29T12:28:42.260Z,14.00
2019-04-29T12:31:18.093Z,14.20
2019-04-29T12:33:53.622Z,14.70
2019-04-29T12:36:23.609Z,15.00
2019-04-29T12:39:43.449Z,15.20
2019-04-29T12:42:18.745Z,15.20
2019-04-29T12:45:22.819Z,15.20
2019-04-29T12:47:52.654Z,15.20
2019-04-29T12:50:23.135Z,15.10
2019-04-29T12:52:56.178Z,14.80
2019-04-29T12:55:44.948Z,14.90
2019-04-29T12:58:08.633Z,14.80
2019-04-29T13:00:47.394Z,14.90
2019-04-29T13:03:39.268Z,15.20
2019-04-29T13:06:23.665Z,15.30
2019-04-29T13:08:54.144Z,15.20
2019-04-29T13:11:37.557Z,15.00
2019-04-29T13:14:01.588Z,15.00
2019-04-29T13:16:57.097Z,15.40
2019-04-29T13:19:39.490Z,15.50
2019-04-29T13:22:10.464Z,15.60
2019-04-29T13:24:42.684Z,15.70
2019-04-29T13:27:16.235Z,15.60
2019-04-29T13:29:43.905Z,15.50
2019-04-29T13:32:14.179Z,15.70
2019-04-29T13:34:45.733Z,15.80
2019-04-29T13:37:18.964Z,15.80
2019-04-29T13:39:47.279Z,16.00
2019-04-29T13:42:17.143Z,16.10
2019-04-29T13:45:06.288Z,16.20
2019-04-29T13:47:50.327Z,16.30
2019-04-29T13:50:38.994Z,16.30
2019-04-29T13:52:55.428Z,16.50
2019-04-29T13:55:47.317Z,16.40
2019-04-29T13:57:56.784Z,16.50
2019-04-29T14:00:36.605Z,16.60
2019-04-29T14:03:11.634Z,16.70
2019-04-29T14:05:41.756Z,16.90
2019-04-29T14:08:12.105Z,16.80
2019-04-29T14:10:41.994Z,16.80
2019-04-29T14:13:16.271Z,16.70
2019-04-29T14:15:43.251Z,16.70
2019-04-29T14:18:13.742Z,16.70
2019-04-29T14:20:47.334Z,16.80
2019-04-29T14:23:15.294Z,16.80
2019-04-29T14:25:45.217Z,16.70
2019-04-29T14:28:15.381Z,16.50
2019-04-29T14:30:47.685Z,16.50
2019-04-29T14:33:19.343Z,16.50
2019-04-29T14:35:55.874Z,16.50
2019-04-29T14:38:25.446Z,16.50
2019-04-29T14:40:55.221Z,16.40
2019-04-29T14:43:44.521Z,16.30
2019-04-29T14:46:22.861Z,16.30
2019-04-29T14:49:17.849Z,16.30
2019-04-29T14:51:47.518Z,16.40
2019-04-29T14:54:17.475Z,16.40
2019-04-29T14:56:47.107Z,16.40
2019-04-29T14:59:17.904Z,16.50
2019-04-29T15:01:53.388Z,16.50
2019-04-29T15:04:25.296Z,16.50
2019-04-29T15:06:55.126Z,16.40
2019-04-29T15:09:25.266Z,16.30
2019-04-29T15:12:23.905Z,16.30
2019-04-29T15:15:08.866Z,16.30
2019-04-29T15:17:57.869Z,16.50
2019-04-29T15:20:45.124Z,16.50
2019-04-29T15:23:27.916Z,16.50
2019-04-29T15:25:46.476Z,16.70
2019-04-29T15:28:18.770Z,16.50
2019-04-29T15:30:48.042Z,16.70
2019-04-29T15:33:17.697Z,16.50
2019-04-29T15:35:47.848Z,16.60
2019-04-29T15:38:17.525Z,16.40
2019-04-29T15:40:47.499Z,16.40
2019-04-29T15:43:17.915Z,16.40
2019-04-29T15:45:49.233Z,16.30
2019-04-29T15:48:19.089Z,16.10
2019-04-29T15:50:49.314Z,16.10
2019-04-29T15:53:19.203Z,16.10
2019-04-29T15:55:49.182Z,16.10
2019-04-29T15:58:22.486Z,16.10
2019-04-29T16:00:50.732Z,16.10
2019-04-29T16:03:20.807Z,16.00
2019-04-29T16:06:20.621Z,16.00
2019-04-29T16:08:49.868Z,15.90
2019-04-29T16:11:37.246Z,15.90
2019-04-29T16:14:10.935Z,16.10
2019-04-29T16:16:42.685Z,16.00
2019-04-29T16:19:13.224Z,16.10
2019-04-29T16:21:43.846Z,16.00
2019-04-29T16:24:26.251Z,16.00
2019-04-29T16:26:45.887Z,15.90
2019-04-29T16:29:17.839Z,15.80
2019-04-29T16:31:48.945Z,15.70
2019-04-29T16:34:19.290Z,15.70
2019-04-29T16:36:49.764Z,15.70
2019-04-29T16:39:20.560Z,15.60
2019-04-29T16:42:09.551Z,15.60
2019-04-29T16:44:41.022Z,15.70
2019-04-29T16:47:13.103Z,15.80
2019-04-29T16:49:44.766Z,15.70
2019-04-29T16:52:16.372Z,15.70
2019-04-29T16:54:46.261Z,15.80
2019-04-29T16:57:17.031Z,15.70
2019-04-29T16:59:47.076Z,15.60
2019-04-29T17:02:19.587Z,15.60
2019-04-29T17:04:48.170Z,15.60
2019-04-29T17:07:18.014Z,15.70
2019-04-29T17:10:00.133Z,15.80
2019-04-29T17:12:38.023Z,15.70
2019-04-29T17:15:23.859Z,15.60
2019-04-29T17:35:08.619Z,15.00
2019-04-29T17:37:41.830Z,14.80
2019-04-29T17:40:15.599Z,14.40
2019-04-29T17:51:38.586Z,14.20
2019-04-29T17:53:40.148Z,14.00
2019-04-29T17:59:41.570Z,13.80
2019-04-29T18:02:35.980Z,13.60
2019-04-29T18:05:34.356Z,13.50
2019-04-29T18:08:14.782Z,13.40
2019-04-29T18:14:46.928Z,13.40
2019-04-29T18:14:51.509Z,13.30
2019-04-29T18:17:26.830Z,13.40
2019-04-29T18:19:58.340Z,13.30
2019-04-29T18:22:54.785Z,12.90
2019-04-29T18:25:36.626Z,13.30
2019-04-29T18:28:06.917Z,13.10
2019-04-29T18:30:38.605Z,12.90
2019-04-29T18:33:08.686Z,12.90
2019-04-29T18:35:43.613Z,12.90
2019-04-29T18:38:13.421Z,12.70
2019-04-29T18:40:44.802Z,12.60
2019-04-29T18:43:19.209Z,12.70
2019-04-29T18:58:50.242Z,12.50
2019-04-29T18:59:30.700Z,12.20
2019-04-29T19:01:54.888Z,12.00
2019-04-29T19:04:53.497Z,12.10
2019-04-29T19:07:21.556Z,12.00
2019-04-29T19:09:51.373Z,11.90
2019-04-29T19:12:22.200Z,11.80
2019-04-29T19:14:51.888Z,11.60
2019-04-29T19:17:22.208Z,11.60
2019-04-29T19:19:56.200Z,11.50
2019-04-29T19:22:25.959Z,11.60
2019-04-29T19:24:55.866Z,11.60
2019-04-29T19:27:26.030Z,11.60
2019-04-29T19:29:56.992Z,11.50
2019-04-29T19:32:27.149Z,11.40
2019-04-29T19:34:58.386Z,11.40
2019-04-29T19:37:32.283Z,11.40
2019-04-29T19:39:59.763Z,11.30
2019-04-29T19:42:35.353Z,11.20
2019-04-29T19:45:00.847Z,11.20
2019-04-29T19:47:30.420Z,11.10
2019-04-29T19:50:00.309Z,11.00
2019-04-29T19:52:31.719Z,11.00
2019-04-29T19:55:03.354Z,11.00
2019-04-29T19:57:36.206Z,11.00
2019-04-29T20:00:06.603Z,10.90
2019-04-29T20:02:40.972Z,10.90
2019-04-29T20:05:23.983Z,10.80
2019-04-29T20:07:52.164Z,10.80
2019-04-29T20:10:23.221Z,10.70
2019-04-29T20:12:55.609Z,10.70
2019-04-29T20:15:26.026Z,10.70
2019-04-29T20:18:15.687Z,10.70
2019-04-29T20:20:50.880Z,10.60
2019-04-29T20:23:26.296Z,10.60
2019-04-29T20:25:52.486Z,10.50
2019-04-29T20:28:22.524Z,10.50
2019-04-29T20:30:58.451Z,10.50
2019-04-29T20:33:24.343Z,10.40
2019-04-29T20:35:55.995Z,10.30
2019-04-29T20:38:29.684Z,10.30
2019-04-29T20:40:58.391Z,10.30
2019-04-29T20:43:29.566Z,10.30
2019-04-29T20:46:02.327Z,10.20
2019-04-29T20:48:31.619Z,10.10
2019-04-29T20:51:13.118Z,10.20
2019-04-29T20:53:46.080Z,10.20
2019-04-29T20:56:23.747Z,10.10
2019-04-29T20:58:48.784Z,10.10
2019-04-29T21:01:25.537Z,10.20
2019-04-29T21:03:56.745Z,10.10
2019-04-29T21:06:26.668Z,10.00
2019-04-29T21:08:56.392Z,9.90
2019-04-29T21:11:32.853Z,9.90
2019-04-29T21:14:15.704Z,9.90
2019-04-29T21:16:47.257Z,9.90
2019-04-29T21:19:19.549Z,9.90
2019-04-29T21:21:49.350Z,9.90
2019-04-29T21:24:19.227Z,9.80
2019-04-29T21:26:51.502Z,9.80
2019-04-29T21:29:21.321Z,9.80
2019-04-29T21:31:58.353Z,9.80
2019-04-29T21:34:25.527Z,9.80
2019-04-29T21:37:17.622Z,9.80
2019-04-29T21:40:14.635Z,9.70
2019-04-29T21:42:52.286Z,9.70
2019-04-29T21:45:22.274Z,9.70
2019-04-29T21:47:54.399Z,9.60
2019-04-29T21:50:27.171Z,9.60
2019-04-29T21:53:01.701Z,9.70
2019-04-29T21:55:29.351Z,9.70
2019-04-29T21:58:00.173Z,9.70
2019-04-29T22:00:29.946Z,9.70
2019-04-29T22:03:00.829Z,9.60
2019-04-29T22:05:32.840Z,9.60
2019-04-29T22:08:02.495Z,9.60
2019-04-29T22:10:34.568Z,9.50
2019-04-29T22:13:05.048Z,9.60
2019-04-29T22:15:39.043Z,9.40
2019-04-29T22:18:13.480Z,9.30
2019-04-29T22:20:42.241Z,9.30
2019-04-29T22:23:13.262Z,9.30
2019-04-29T22:25:45.793Z,9.30
2019-04-29T22:28:16.096Z,9.30
2019-04-29T22:30:49.922Z,9.30
2019-04-29T22:33:18.686Z,9.30
2019-04-29T22:35:48.707Z,9.30
2019-04-29T22:38:18.911Z,9.20
2019-04-29T22:40:55.066Z,9.20
2019-04-29T22:43:47.292Z,9.10
2019-04-29T22:46:18.453Z,9.10
2019-04-29T22:48:48.733Z,9.10
2019-04-29T22:51:19.125Z,9.10
2019-04-29T22:53:49.033Z,9.10
2019-04-29T22:56:18.974Z,9.20
2019-04-29T22:58:48.594Z,9.10
2019-04-29T23:01:18.322Z,9.20
2019-04-29T23:03:47.951Z,9.10
2019-04-29T23:06:17.660Z,9.10
2019-04-29T23:08:47.315Z,9.10
2019-04-29T23:11:16.970Z,9.10
2019-04-29T23:13:49.029Z,9.00
2019-04-29T23:16:18.322Z,8.90
2019-04-29T23:18:47.977Z,8.80
2019-04-29T23:21:42.880Z,8.70
2019-04-29T23:24:19.900Z,8.80
2019-04-29T23:26:49.568Z,8.70
2019-04-29T23:29:19.281Z,8.70
2019-04-29T23:31:48.979Z,8.70
2019-04-29T23:34:18.909Z,8.70
2019-04-29T23:36:48.874Z,8.70
2019-04-29T23:39:18.792Z,8.70
2019-04-29T23:41:48.665Z,8.70
2019-04-29T23:44:18.298Z,8.60
2019-04-29T23:46:47.979Z,8.50
2019-04-29T23:49:17.589Z,8.50
2019-04-29T23:51:47.239Z,8.50
2019-04-29T23:54:17.056Z,8.60
2019-04-29T23:57:06.293Z,8.70
2019-04-29T23:59:37.708Z,8.60
